Terminal Aerodrome Forecast
Issued by NWS

Home | Current Version | Previous Version | Text Only | Print | Product List | Glossary On
Versions: 1 2 3 4 5 6 7 8 9 10 11 12 13 14 15 16
000
FTUS44 KSJT 231100
TAFJCT
TAF
KJCT 231137Z 2312/2412 18005KT P6SM SKC
     FM231600 18010G16KT P6SM FEW250
     FM240100 16007KT P6SM SCT250=

USA.gov is the U.S. government's official web portal to all federal, state and local government web resources and services.